Time;durP1;ratioP1;P1;durP2;ratioP2;P2;SDS_P1;SDS_P2;PMS_P1;PMS_P2;Temp;Humidity;BMP_temperature;BMP_pressure;BME280_temperature;BME280_humidity;BME280_pressure;Samples;Min_cycle;Max_cycle;Signal;HPM_P1;HPM_P2
2022/01/19 00:01:13;;;;;;;;;;;-2.00;99.90;;;;;;4999027;28;19941;-87
2022/01/19 00:03:39;;;;;;;;;;;-1.80;99.90;;;;;;5003661;28;19925;-89
2022/01/19 00:06:05;;;;;;;;;;;-1.70;99.90;;;;;;5000021;28;19965;-86
2022/01/19 00:08:30;;;;;;;;;;;-1.60;99.90;;;;;;4999605;28;19920;-88
2022/01/19 00:10:57;;;;;;;;;;;-1.50;99.90;;;;;;5000272;28;20393;-88
2022/01/19 00:13:23;;;;;;;;;;;-1.30;99.90;;;;;;4985979;28;19951;-88
2022/01/19 00:15:48;;;;;;;;;;;-1.20;99.90;;;;;;4999391;28;19953;-88
2022/01/19 00:18:16;;;;;;;;;;;-1.10;99.90;;;;;;4983662;28;20373;-87
2022/01/19 00:20:41;;;;;;;;;;;-1.10;99.90;;;;;;4998903;28;19921;-89
2022/01/19 00:23:08;;;;;;;;;;;-1.00;99.90;;;;;;5004913;28;19926;-90
2022/01/19 00:25:34;;;;;;;;;;;-0.90;99.90;;;;;;4992136;28;19928;-86
2022/01/19 00:28:00;;;;;;;;;;;-0.80;99.90;;;;;;4984926;28;19921;-87
2022/01/19 00:30:26;;;;;;;;;;;-0.60;99.90;;;;;;4981068;28;19917;-87
2022/01/19 00:32:52;;;;;;;;;;;-0.60;99.90;;;;;;4998689;28;19940;-87
2022/01/19 00:35:18;;;;;;;;;;;-0.50;99.90;;;;;;4998964;28;20004;-86
2022/01/19 00:37:45;;;;;;;;;;;-0.50;99.90;;;;;;4982068;28;19922;-85
2022/01/19 00:40:12;;;;;;;;;;;-0.60;99.90;;;;;;4983882;28;19918;-87
2022/01/19 00:42:38;;;;;;;;;;;-0.60;99.90;;;;;;5001214;28;19918;-87
2022/01/19 00:45:05;;;;;;;;;;;-0.50;99.90;;;;;;4983152;28;20315;-86
2022/01/19 00:47:30;;;;;;;;;;;-0.30;99.90;;;;;;4985392;28;19964;-86
2022/01/19 00:49:56;;;;;;;;;;;-0.20;99.90;;;;;;4997339;28;19922;-86
2022/01/19 00:52:21;;;;;;;;;;;-0.10;99.90;;;;;;5008259;28;20361;-85
2022/01/19 00:54:47;;;;;;;;;;;0.00;99.90;;;;;;4996145;28;20359;-88
2022/01/19 00:57:13;;;;;;;;;;;0.00;99.90;;;;;;4962420;28;20365;-87
2022/01/19 00:59:38;;;;;;;;;;;-0.10;99.90;;;;;;5005027;28;20399;-89
2022/01/19 01:02:04;;;;;;;;;;;-0.20;99.90;;;;;;4982346;28;19929;-89
2022/01/19 01:04:32;;;;;;;;;;;-0.30;99.90;;;;;;4998462;28;19925;-87
2022/01/19 01:06:58;;;;;;;;;;;-0.30;99.90;;;;;;4980128;28;19918;-86
2022/01/19 01:09:23;;;;;;;;;;;-0.30;99.90;;;;;;4981768;28;20004;-86
2022/01/19 01:12:10;;;;;;;;;;;-0.20;99.90;;;;;;4998791;28;20001;-86
2022/01/19 01:20:06;;;;;;;;;;;-0.10;99.90;;;;;;4999245;28;20340;-89
2022/01/19 01:22:32;;;;;;;;;;;-0.20;99.90;;;;;;4986165;28;19921;-89
2022/01/19 01:24:57;;;;;;;;;;;-0.20;99.90;;;;;;5001334;28;19914;-87
2022/01/19 01:27:23;;;;;;;;;;;-0.40;99.90;;;;;;4997455;28;19922;-89
2022/01/19 01:29:48;;;;;;;;;;;-0.20;99.90;;;;;;5002026;28;19921;-86
2022/01/19 01:32:14;;;;;;;;;;;-0.30;99.90;;;;;;5000699;28;19926;-86
2022/01/19 01:34:40;;;;;;;;;;;-0.20;99.90;;;;;;4980480;28;20626;-86
2022/01/19 01:37:05;;;;;;;;;;;-0.20;99.90;;;;;;4982358;28;19992;-87
2022/01/19 01:39:31;;;;;;;;;;;-0.10;99.90;;;;;;4979018;28;19957;-86
2022/01/19 01:41:56;;;;;;;;;;;-0.20;99.90;;;;;;5004007;28;20360;-86
2022/01/19 01:44:22;;;;;;;;;;;-0.20;99.90;;;;;;5001647;28;19976;-88
2022/01/19 01:46:54;;;;;;;;;;;-0.10;99.90;;;;;;5000439;28;19918;-89
2022/01/19 01:49:27;;;;;;;;;;;-0.20;99.90;;;;;;4980433;28;19922;-87
2022/01/19 01:54:39;;;;;;;;;;;-0.20;99.90;;;;;;5003923;28;20396;-87
2022/01/19 01:57:05;;;;;;;;;;;-0.10;99.90;;;;;;5003819;28;19929;-87
2022/01/19 01:59:34;;;;;;;;;;;-0.10;99.90;;;;;;5002874;28;19959;-88
2022/01/19 02:02:00;;;;;;;;;;;0.10;99.90;;;;;;4984391;28;19925;-88
2022/01/19 02:04:26;;;;;;;;;;;0.10;99.90;;;;;;5004350;28;19925;-86
2022/01/19 02:07:30;;;;;;;;;;;0.10;99.90;;;;;;5006560;28;19918;-87
2022/01/19 02:09:39;;;;;;;;;;;0.00;99.90;;;;;;5000054;28;19918;-86
2022/01/19 02:23:01;;;;;;;;;;;-0.20;99.90;;;;;;5000673;28;19924;-87
2022/01/19 02:25:30;;;;;;;;;;;-0.20;99.90;;;;;;4985582;28;19972;-87
2022/01/19 02:36:36;;;;;;;;;;;-0.10;99.90;;;;;;5002292;28;19925;-89
2022/01/19 02:41:46;;;;;;;;;;;0.00;99.90;;;;;;5004760;28;19932;-87
2022/01/19 02:44:26;;;;;;;;;;;0.10;99.90;;;;;;4999701;28;19918;-87
2022/01/19 02:49:21;;;;;;;;;;;0.20;99.90;;;;;;5004393;28;19925;-88
2022/01/19 02:51:51;;;;;;;;;;;0.00;99.90;;;;;;4999574;28;19924;-86
2022/01/19 02:54:20;;;;;;;;;;;-0.20;99.90;;;;;;5001281;28;19980;-89
2022/01/19 02:56:51;;;;;;;;;;;0.00;99.90;;;;;;4986642;28;20441;-88
2022/01/19 03:10:04;;;;;;;;;;;0.00;99.90;;;;;;4998865;28;20289;-90
2022/01/19 03:12:29;;;;;;;;;;;0.00;99.90;;;;;;5003471;28;19917;-87
2022/01/19 03:14:56;;;;;;;;;;;0.00;99.90;;;;;;4988044;28;19925;-87
2022/01/19 03:17:23;;;;;;;;;;;0.00;99.90;;;;;;4983035;28;19957;-87
2022/01/19 03:19:49;;;;;;;;;;;0.10;99.90;;;;;;5003158;28;19920;-84
2022/01/19 03:22:17;;;;;;;;;;;0.20;99.90;;;;;;4984917;28;19997;-88
2022/01/19 03:24:49;;;;;;;;;;;0.30;99.90;;;;;;5003223;28;19917;-87
2022/01/19 03:27:15;;;;;;;;;;;0.30;99.90;;;;;;5004305;28;20029;-89
2022/01/19 03:29:40;;;;;;;;;;;0.30;99.90;;;;;;5004218;28;19957;-87
2022/01/19 03:32:06;;;;;;;;;;;0.30;99.90;;;;;;5003814;28;19972;-86
2022/01/19 03:34:32;;;;;;;;;;;0.30;99.90;;;;;;4981732;28;20012;-87
2022/01/19 03:36:57;;;;;;;;;;;0.30;99.90;;;;;;4996490;28;20293;-88
2022/01/19 03:39:23;;;;;;;;;;;0.20;99.90;;;;;;4998538;28;19953;-88
2022/01/19 03:41:49;;;;;;;;;;;0.30;99.90;;;;;;5002650;28;20005;-87
2022/01/19 03:44:14;;;;;;;;;;;0.30;99.90;;;;;;5000690;28;19921;-88
2022/01/19 03:46:54;;;;;;;;;;;0.40;99.90;;;;;;5001052;28;20289;-86
2022/01/19 03:49:24;;;;;;;;;;;0.40;99.90;;;;;;4981847;28;20283;-88
2022/01/19 03:51:54;;;;;;;;;;;0.60;99.90;;;;;;5003866;28;20385;-91
2022/01/19 03:54:20;;;;;;;;;;;0.20;99.90;;;;;;5000230;28;19945;-88
2022/01/19 03:56:46;;;;;;;;;;;0.10;99.90;;;;;;4995840;28;19917;-88
2022/01/19 03:59:11;;;;;;;;;;;0.10;99.90;;;;;;4983923;28;19984;-87
2022/01/19 04:01:37;;;;;;;;;;;0.30;99.90;;;;;;5002281;28;19964;-86
2022/01/19 04:06:50;;;;;;;;;;;0.30;99.90;;;;;;4999412;28;20393;-87
2022/01/19 04:09:13;;;;;;;;;;;0.40;99.90;;;;;;4998592;28;19922;-86
2022/01/19 04:11:39;;;;;;;;;;;0.30;99.90;;;;;;4983381;28;20075;-87
2022/01/19 04:16:30;;;;;;;;;;;0.50;99.90;;;;;;4997253;28;20333;-88
2022/01/19 04:19:23;;;;;;;;;;;0.20;99.90;;;;;;4984190;28;19918;-88
2022/01/19 04:21:42;;;;;;;;;;;0.10;99.90;;;;;;4998051;28;20016;-87
2022/01/19 04:24:07;;;;;;;;;;;0.20;99.90;;;;;;4998467;28;20388;-86
2022/01/19 04:26:33;;;;;;;;;;;0.20;99.90;;;;;;4980445;28;19922;-87
2022/01/19 04:28:58;;;;;;;;;;;0.20;99.90;;;;;;4981127;28;19922;-87
2022/01/19 04:31:24;;;;;;;;;;;0.30;99.90;;;;;;4984052;28;20400;-87
2022/01/19 04:33:49;;;;;;;;;;;0.40;99.90;;;;;;4996781;28;20386;-86
2022/01/19 05:03:44;;;;;;;;;;;0.30;99.90;;;;;;4997208;28;19932;-87
2022/01/19 05:06:14;;;;;;;;;;;0.30;99.90;;;;;;4997000;28;20012;-87
2022/01/19 05:09:00;;;;;;;;;;;0.30;99.90;;;;;;4980983;28;20252;-86
2022/01/19 05:14:10;;;;;;;;;;;0.30;99.90;;;;;;4999540;28;19929;-86
2022/01/19 05:16:36;;;;;;;;;;;0.20;99.90;;;;;;5002660;28;19913;-85
2022/01/19 05:19:02;;;;;;;;;;;0.30;99.90;;;;;;5003564;28;19985;-88
2022/01/19 05:21:28;;;;;;;;;;;0.30;99.90;;;;;;4985104;28;19922;-86
2022/01/19 05:23:53;;;;;;;;;;;0.30;99.90;;;;;;4992843;28;19975;-87
2022/01/19 05:26:19;;;;;;;;;;;0.30;99.90;;;;;;4995225;28;19917;-86
2022/01/19 05:28:45;;;;;;;;;;;0.40;99.90;;;;;;4986143;28;19913;-87
2022/01/19 05:31:11;;;;;;;;;;;0.50;99.90;;;;;;4983214;28;20288;-87
2022/01/19 05:33:36;;;;;;;;;;;0.50;99.90;;;;;;4997551;28;19969;-87
2022/01/19 05:36:02;;;;;;;;;;;0.50;99.90;;;;;;5002990;28;20004;-88
2022/01/19 05:38:28;;;;;;;;;;;0.50;99.90;;;;;;4996453;28;20012;-86
2022/01/19 05:40:54;;;;;;;;;;;0.40;99.90;;;;;;4971065;28;20088;-88
2022/01/19 05:43:24;;;;;;;;;;;0.50;99.90;;;;;;4999528;28;19922;-86
2022/01/19 05:45:49;;;;;;;;;;;0.40;99.90;;;;;;4987560;28;19929;-88
2022/01/19 05:48:15;;;;;;;;;;;0.40;99.90;;;;;;5001735;28;19992;-89
2022/01/19 05:50:41;;;;;;;;;;;0.50;99.90;;;;;;4986681;28;19914;-88
2022/01/19 05:53:06;;;;;;;;;;;0.40;99.90;;;;;;5003760;28;20439;-88
2022/01/19 05:55:32;;;;;;;;;;;0.50;99.90;;;;;;4998322;28;19961;-88
2022/01/19 05:57:57;;;;;;;;;;;0.50;99.90;;;;;;4978742;28;20016;-87
2022/01/19 06:00:23;;;;;;;;;;;0.50;99.90;;;;;;4979665;28;19921;-87
2022/01/19 06:02:49;;;;;;;;;;;0.50;99.90;;;;;;4982728;28;19918;-89
2022/01/19 06:05:15;;;;;;;;;;;0.50;99.90;;;;;;5000374;28;19922;-89
2022/01/19 06:07:46;;;;;;;;;;;0.40;99.90;;;;;;4987481;28;19928;-87
2022/01/19 06:10:42;;;;;;;;;;;0.40;99.90;;;;;;5003421;28;20402;-89
2022/01/19 06:12:58;;;;;;;;;;;0.40;99.90;;;;;;4997742;28;19949;-88
2022/01/19 06:15:24;;;;;;;;;;;0.40;99.90;;;;;;4984723;28;19928;-87
2022/01/19 06:17:50;;;;;;;;;;;0.40;99.90;;;;;;4997448;28;19929;-80
2022/01/19 06:20:15;;;;;;;;;;;0.40;99.90;;;;;;4985896;28;19986;-87
2022/01/19 06:22:41;;;;;;;;;;;0.50;99.90;;;;;;4985524;28;19968;-86
2022/01/19 06:25:07;;;;;;;;;;;0.40;99.90;;;;;;5000991;28;20436;-88
2022/01/19 06:27:32;;;;;;;;;;;0.40;99.90;;;;;;4986102;28;19922;-86
2022/01/19 06:29:58;;;;;;;;;;;0.40;99.90;;;;;;4988361;28;19936;-85
2022/01/19 06:32:23;;;;;;;;;;;0.40;99.90;;;;;;5003601;28;19924;-86
2022/01/19 06:34:49;;;;;;;;;;;0.30;99.90;;;;;;5004919;28;19918;-89
2022/01/19 06:37:14;;;;;;;;;;;0.30;99.90;;;;;;5001748;28;19925;-88
2022/01/19 06:39:40;;;;;;;;;;;0.30;99.90;;;;;;4986795;28;19913;-87
2022/01/19 06:42:06;;;;;;;;;;;0.30;99.90;;;;;;4985372;28;19964;-88
2022/01/19 06:44:31;;;;;;;;;;;0.30;99.90;;;;;;4986703;28;19922;-87
2022/01/19 06:46:57;;;;;;;;;;;0.30;99.90;;;;;;5001554;28;20392;-88
2022/01/19 06:49:23;;;;;;;;;;;0.20;99.90;;;;;;4988918;28;19922;-87
2022/01/19 06:51:49;;;;;;;;;;;0.20;99.90;;;;;;5000480;28;20379;-81
2022/01/19 06:54:14;;;;;;;;;;;0.20;99.90;;;;;;4983655;28;19924;-84
2022/01/19 06:56:41;;;;;;;;;;;0.10;99.90;;;;;;5000265;28;19918;-85
2022/01/19 06:59:07;;;;;;;;;;;0.00;99.90;;;;;;4997156;28;20689;-89
2022/01/19 07:01:33;;;;;;;;;;;0.00;99.90;;;;;;4999280;28;19921;-86
2022/01/19 07:04:00;;;;;;;;;;;0.00;99.90;;;;;;4999561;28;19928;-86
2022/01/19 07:06:25;;;;;;;;;;;0.00;99.90;;;;;;5001752;28;20285;-86
2022/01/19 07:08:51;;;;;;;;;;;0.00;99.90;;;;;;4980782;28;19921;-88
2022/01/19 07:11:16;;;;;;;;;;;0.10;99.90;;;;;;4999934;28;19917;-86
2022/01/19 07:13:42;;;;;;;;;;;0.00;99.90;;;;;;4999584;28;19924;-87
2022/01/19 07:16:07;;;;;;;;;;;0.00;99.90;;;;;;5002223;28;19922;-85
2022/01/19 07:18:33;;;;;;;;;;;0.00;99.90;;;;;;5001962;28;19922;-87
2022/01/19 07:20:59;;;;;;;;;;;0.00;99.90;;;;;;4998225;28;20029;-88
2022/01/19 07:23:24;;;;;;;;;;;0.00;99.90;;;;;;4995737;28;19917;-87
2022/01/19 07:25:50;;;;;;;;;;;0.10;99.90;;;;;;4999569;28;20393;-86
2022/01/19 07:28:16;;;;;;;;;;;0.00;99.90;;;;;;4999488;28;20617;-85
2022/01/19 07:30:41;;;;;;;;;;;0.00;99.90;;;;;;4999548;28;19941;-88
2022/01/19 07:33:07;;;;;;;;;;;0.10;99.90;;;;;;5000272;28;20297;-86
2022/01/19 07:35:32;;;;;;;;;;;0.10;99.90;;;;;;4997790;28;19977;-86
2022/01/19 07:37:58;;;;;;;;;;;0.00;99.90;;;;;;4983907;28;19922;-88
2022/01/19 07:40:24;;;;;;;;;;;0.10;99.90;;;;;;4997405;28;20408;-87
2022/01/19 07:42:51;;;;;;;;;;;0.00;99.90;;;;;;4995810;28;20037;-86
2022/01/19 07:45:17;;;;;;;;;;;0.00;99.90;;;;;;4997675;28;20397;-88
2022/01/19 07:47:42;;;;;;;;;;;0.00;99.90;;;;;;4984632;28;19917;-88
2022/01/19 07:50:08;;;;;;;;;;;0.10;99.90;;;;;;4998001;28;20395;-87
2022/01/19 07:52:34;;;;;;;;;;;0.00;99.90;;;;;;5001334;28;19914;-86
2022/01/19 07:54:59;;;;;;;;;;;0.00;99.90;;;;;;4984449;28;20043;-86
2022/01/19 07:57:25;;;;;;;;;;;0.00;99.90;;;;;;4996857;28;20404;-85
2022/01/19 07:59:50;;;;;;;;;;;0.00;99.90;;;;;;4995320;28;19925;-86
2022/01/19 08:02:16;;;;;;;;;;;0.00;99.90;;;;;;4979058;28;19996;-86
2022/01/19 08:04:42;;;;;;;;;;;0.10;99.90;;;;;;4964853;28;19937;-88
2022/01/19 08:07:08;;;;;;;;;;;0.10;99.90;;;;;;4958353;28;19977;-87
2022/01/19 08:09:34;;;;;;;;;;;0.20;99.90;;;;;;4944953;28;19928;-90
2022/01/19 08:12:00;;;;;;;;;;;0.20;99.90;;;;;;4958669;28;19914;-89
2022/01/19 08:14:25;;;;;;;;;;;0.20;99.90;;;;;;4956414;28;19921;-83
2022/01/19 08:16:51;;;;;;;;;;;0.20;99.90;;;;;;4956245;28;20887;-84
2022/01/19 08:19:17;;;;;;;;;;;0.20;99.90;;;;;;4957588;28;20600;-84
2022/01/19 08:21:43;;;;;;;;;;;0.20;99.90;;;;;;4957586;28;19918;-84
2022/01/19 08:24:08;;;;;;;;;;;0.20;99.90;;;;;;4961487;28;20298;-85
2022/01/19 08:26:34;;;;;;;;;;;0.20;99.90;;;;;;4958949;28;20368;-84
2022/01/19 08:29:00;;;;;;;;;;;0.20;99.90;;;;;;4956833;28;20294;-85
2022/01/19 08:31:25;;;;;;;;;;;0.20;99.90;;;;;;4959751;28;19934;-83
2022/01/19 08:33:51;;;;;;;;;;;0.10;99.90;;;;;;4957793;28;20457;-84
2022/01/19 08:36:17;;;;;;;;;;;0.10;99.90;;;;;;4956921;28;20357;-83
2022/01/19 08:38:43;;;;;;;;;;;0.10;99.90;;;;;;4958668;28;19925;-89
2022/01/19 08:41:08;;;;;;;;;;;0.00;99.90;;;;;;4958301;28;20100;-85
2022/01/19 08:43:37;;;;;;;;;;;0.10;99.90;;;;;;4941749;28;19918;-84
2022/01/19 08:46:02;;;;;;;;;;;0.10;99.90;;;;;;4959375;28;19914;-87
2022/01/19 08:48:28;;;;;;;;;;;0.20;99.90;;;;;;4961642;28;19968;-86
2022/01/19 08:50:54;;;;;;;;;;;0.30;99.90;;;;;;4959377;28;19929;-87
2022/01/19 08:53:20;;;;;;;;;;;0.40;99.90;;;;;;4963423;28;19918;-85
2022/01/19 08:55:46;;;;;;;;;;;0.50;99.90;;;;;;4962706;28;20386;-82
2022/01/19 08:58:13;;;;;;;;;;;0.60;99.90;;;;;;4965596;28;19922;-83
2022/01/19 09:00:43;;;;;;;;;;;0.60;99.90;;;;;;4975855;28;19953;-84
2022/01/19 09:03:09;;;;;;;;;;;0.70;99.90;;;;;;4995429;28;20304;-84
2022/01/19 09:05:34;;;;;;;;;;;0.60;99.90;;;;;;4987266;28;20467;-82
2022/01/19 09:08:00;;;;;;;;;;;0.70;99.90;;;;;;5003781;28;19926;-86
2022/01/19 09:10:26;;;;;;;;;;;0.70;99.90;;;;;;4986329;28;20297;-85
2022/01/19 09:12:52;;;;;;;;;;;0.70;99.90;;;;;;5002411;28;19925;-83
2022/01/19 09:15:18;;;;;;;;;;;0.80;99.90;;;;;;5000495;28;19987;-86
2022/01/19 09:17:44;;;;;;;;;;;0.80;99.90;;;;;;4998328;28;19990;-85
2022/01/19 09:20:10;;;;;;;;;;;0.90;99.90;;;;;;4984298;28;19913;-85
2022/01/19 09:22:37;;;;;;;;;;;0.80;99.90;;;;;;5001013;28;19914;-86
2022/01/19 09:25:03;;;;;;;;;;;0.90;99.90;;;;;;4998691;28;19924;-81
2022/01/19 09:27:29;;;;;;;;;;;1.10;99.90;;;;;;4998391;28;20119;-85
2022/01/19 09:29:57;;;;;;;;;;;1.00;99.90;;;;;;5003979;28;20463;-86
2022/01/19 09:32:24;;;;;;;;;;;0.90;99.90;;;;;;4986023;28;19926;-83
2022/01/19 09:34:55;;;;;;;;;;;1.00;99.90;;;;;;4998778;28;19928;-84
2022/01/19 09:37:21;;;;;;;;;;;1.00;99.90;;;;;;4999304;28;19925;-85
2022/01/19 09:39:46;;;;;;;;;;;1.00;99.90;;;;;;5001766;28;20426;-86
2022/01/19 09:42:12;;;;;;;;;;;1.00;99.90;;;;;;4983017;28;20560;-84
2022/01/19 09:44:38;;;;;;;;;;;1.00;99.90;;;;;;4982215;28;19924;-82
2022/01/19 09:47:04;;;;;;;;;;;1.10;99.90;;;;;;5004169;28;19953;-84
2022/01/19 09:49:29;;;;;;;;;;;1.20;99.90;;;;;;4980086;28;19917;-83
2022/01/19 09:51:55;;;;;;;;;;;1.20;99.90;;;;;;4999877;28;20401;-83
2022/01/19 09:54:22;;;;;;;;;;;1.20;99.90;;;;;;5003745;28;19917;-84
2022/01/19 09:56:48;;;;;;;;;;;1.30;99.90;;;;;;5000720;28;19917;-84
2022/01/19 09:59:15;;;;;;;;;;;1.20;99.90;;;;;;4999386;28;20442;-85
2022/01/19 10:02:03;;;;;;;;;;;1.30;99.90;;;;;;4998621;28;19917;-84
2022/01/19 10:04:30;;;;;;;;;;;1.30;99.90;;;;;;5003746;28;19977;-84
2022/01/19 10:07:10;;;;;;;;;;;1.40;99.90;;;;;;5000786;28;19928;-84
2022/01/19 10:09:46;;;;;;;;;;;1.50;99.90;;;;;;4987603;28;19913;-84
2022/01/19 10:17:54;;;;;;;;;;;1.60;99.90;;;;;;4997886;28;19972;-83
2022/01/19 10:20:20;;;;;;;;;;;1.60;99.90;;;;;;4982247;28;19917;-83
2022/01/19 10:22:46;;;;;;;;;;;1.70;99.90;;;;;;4982688;28;19921;-84
2022/01/19 10:25:11;;;;;;;;;;;1.70;99.90;;;;;;5001921;28;19941;-84
2022/01/19 10:27:38;;;;;;;;;;;1.70;99.90;;;;;;4999757;28;19928;-87
2022/01/19 10:30:03;;;;;;;;;;;1.80;99.90;;;;;;5002650;28;19953;-86
2022/01/19 10:32:33;;;;;;;;;;;1.90;99.90;;;;;;4995138;28;20460;-84
2022/01/19 10:35:12;;;;;;;;;;;1.90;99.90;;;;;;5003542;28;19913;-83
2022/01/19 10:37:37;;;;;;;;;;;2.00;99.90;;;;;;4996054;28;19967;-84
2022/01/19 10:40:03;;;;;;;;;;;2.10;99.90;;;;;;5003879;28;19964;-83
2022/01/19 10:42:31;;;;;;;;;;;2.10;99.90;;;;;;5000187;28;19913;-84
2022/01/19 10:45:03;;;;;;;;;;;2.20;99.90;;;;;;4983039;28;20317;-85
2022/01/19 10:47:38;;;;;;;;;;;2.30;99.90;;;;;;4985499;28;19920;-86
2022/01/19 10:50:04;;;;;;;;;;;2.30;99.90;;;;;;4993738;28;19918;-84
2022/01/19 10:52:43;;;;;;;;;;;2.40;99.90;;;;;;4998756;28;20448;-83
2022/01/19 10:55:23;;;;;;;;;;;2.30;99.90;;;;;;4980049;28;19914;-83
2022/01/19 10:57:50;;;;;;;;;;;2.40;99.90;;;;;;4999884;28;19917;-84
2022/01/19 11:00:19;;;;;;;;;;;2.60;99.90;;;;;;5002980;28;19940;-82
2022/01/19 11:02:45;;;;;;;;;;;2.60;99.90;;;;;;4999692;28;19924;-81
2022/01/19 11:05:11;;;;;;;;;;;2.70;99.90;;;;;;4995259;28;20451;-76
2022/01/19 11:07:37;;;;;;;;;;;2.70;99.90;;;;;;4980284;28;19921;-74
2022/01/19 11:12:40;;;;;;;;;;;2.90;99.90;;;;;;4995436;28;19968;-74
2022/01/19 11:15:09;;;;;;;;;;;3.00;99.90;;;;;;4997852;28;20377;-75
2022/01/19 11:17:35;;;;;;;;;;;2.80;99.90;;;;;;5000850;28;20105;-75
2022/01/19 11:20:08;;;;;;;;;;;2.90;99.90;;;;;;4997439;28;19921;-75
2022/01/19 11:22:52;;;;;;;;;;;3.10;99.90;;;;;;4985545;28;19980;-74
2022/01/19 11:25:30;;;;;;;;;;;3.10;99.90;;;;;;4994479;28;19936;-79
2022/01/19 11:27:55;;;;;;;;;;;3.10;99.90;;;;;;4997429;28;20290;-79
2022/01/19 11:30:24;;;;;;;;;;;3.10;99.90;;;;;;4994952;28;19928;-83
2022/01/19 11:33:15;;;;;;;;;;;3.20;99.90;;;;;;4982268;28;20200;-82
2022/01/19 11:35:43;;;;;;;;;;;3.10;99.90;;;;;;4997065;28;19923;-83
2022/01/19 11:38:28;;;;;;;;;;;3.20;99.90;;;;;;4984425;28;19918;-81
2022/01/19 11:40:54;;;;;;;;;;;3.20;99.90;;;;;;4980981;28;19922;-81
2022/01/19 11:43:23;;;;;;;;;;;3.30;99.90;;;;;;4983128;28;19929;-81
2022/01/19 11:45:49;;;;;;;;;;;3.30;99.90;;;;;;5000460;28;19929;-82
2022/01/19 11:48:18;;;;;;;;;;;3.50;99.90;;;;;;4980167;28;19968;-81
2022/01/19 11:50:45;;;;;;;;;;;3.50;99.90;;;;;;5002972;28;19957;-87
2022/01/19 11:53:12;;;;;;;;;;;3.50;99.90;;;;;;4996149;28;19964;-85
2022/01/19 11:55:40;;;;;;;;;;;3.50;99.90;;;;;;4981561;28;20304;-87
2022/01/19 11:58:13;;;;;;;;;;;3.60;99.90;;;;;;5000020;28;19926;-83
2022/01/19 12:00:39;;;;;;;;;;;3.60;99.90;;;;;;4994204;28;20647;-85
2022/01/19 12:03:16;;;;;;;;;;;3.80;99.90;;;;;;4997047;28;19996;-85
2022/01/19 12:05:42;;;;;;;;;;;3.90;99.90;;;;;;4997133;28;19972;-80
2022/01/19 12:08:27;;;;;;;;;;;3.80;99.90;;;;;;4982795;28;19925;-80
2022/01/19 12:10:57;;;;;;;;;;;3.80;99.90;;;;;;4999670;28;19996;-80
2022/01/19 12:16:26;;;;;;;;;;;4.00;99.90;;;;;;4997398;28;19985;-79
2022/01/19 12:18:53;;;;;;;;;;;4.00;99.90;;;;;;4980356;28;19951;-78
2022/01/19 12:21:22;;;;;;;;;;;4.10;99.90;;;;;;4999971;28;19920;-78
2022/01/19 12:23:48;;;;;;;;;;;4.10;99.90;;;;;;4979662;28;19917;-79
2022/01/19 12:26:14;;;;;;;;;;;4.00;99.90;;;;;;4994286;28;19924;-79
2022/01/19 12:28:50;;;;;;;;;;;3.90;99.90;;;;;;4980258;28;19918;-77
2022/01/19 12:31:22;;;;;;;;;;;3.90;99.90;;;;;;4988510;28;19944;-84
2022/01/19 12:34:09;;;;;;;;;;;4.00;99.90;;;;;;4981021;28;20234;-80
2022/01/19 12:36:53;;;;;;;;;;;4.10;99.90;;;;;;4977385;28;19917;-77
2022/01/19 12:39:25;;;;;;;;;;;4.20;99.90;;;;;;4999562;28;19980;-80
2022/01/19 12:42:21;;;;;;;;;;;4.20;99.90;;;;;;4993535;28;20135;-79
2022/01/19 12:44:49;;;;;;;;;;;4.20;99.90;;;;;;4973639;28;20448;-78
2022/01/19 12:47:26;;;;;;;;;;;4.20;99.90;;;;;;4995941;28;19918;-78
2022/01/19 12:50:18;;;;;;;;;;;4.10;99.90;;;;;;4980126;28;19913;-79
2022/01/19 12:52:53;;;;;;;;;;;4.10;99.90;;;;;;4996476;28;19918;-78
2022/01/19 12:55:20;;;;;;;;;;;4.10;99.90;;;;;;4990871;28;20111;-77
2022/01/19 12:57:47;;;;;;;;;;;4.20;99.80;;;;;;4995519;28;19928;-81
2022/01/19 13:00:18;;;;;;;;;;;4.30;99.90;;;;;;5000181;28;20001;-77
2022/01/19 13:02:44;;;;;;;;;;;4.40;99.40;;;;;;5012408;28;19921;-77
2022/01/19 13:05:12;;;;;;;;;;;4.60;98.60;;;;;;4983351;28;20004;-77
2022/01/19 13:07:43;;;;;;;;;;;4.60;98.10;;;;;;4983887;28;19922;-76
2022/01/19 13:10:26;;;;;;;;;;;4.70;97.40;;;;;;5001215;28;19945;-77
2022/01/19 13:12:57;;;;;;;;;;;4.70;97.50;;;;;;4996024;28;20360;-79
2022/01/19 13:15:23;;;;;;;;;;;4.60;96.60;;;;;;4999888;28;19988;-77
2022/01/19 13:17:50;;;;;;;;;;;4.60;97.00;;;;;;4988391;28;19922;-77
2022/01/19 13:20:17;;;;;;;;;;;4.80;97.80;;;;;;4977060;28;19914;-78
2022/01/19 13:22:44;;;;;;;;;;;4.70;97.30;;;;;;4955156;28;19987;-79
2022/01/19 13:25:16;;;;;;;;;;;4.70;96.90;;;;;;4991521;28;19918;-77
2022/01/19 13:27:45;;;;;;;;;;;4.80;96.70;;;;;;5001192;28;19917;-77
2022/01/19 13:30:12;;;;;;;;;;;4.90;96.60;;;;;;4972841;28;19984;-77
2022/01/19 13:32:39;;;;;;;;;;;5.00;95.60;;;;;;4990068;28;19949;-76
2022/01/19 13:35:06;;;;;;;;;;;5.00;94.50;;;;;;4997360;28;19922;-79
2022/01/19 13:37:45;;;;;;;;;;;5.00;93.40;;;;;;4997050;28;20004;-78
2022/01/19 13:40:11;;;;;;;;;;;5.00;92.10;;;;;;4987708;28;20125;-77
2022/01/19 13:42:40;;;;;;;;;;;4.90;91.60;;;;;;5003730;28;20011;-77
2022/01/19 13:45:10;;;;;;;;;;;4.90;91.70;;;;;;4996121;28;19954;-77
2022/01/19 13:48:05;;;;;;;;;;;4.80;92.00;;;;;;4976674;28;19940;-76
2022/01/19 13:50:34;;;;;;;;;;;4.80;93.00;;;;;;4999014;28;19924;-80
2022/01/19 13:53:00;;;;;;;;;;;4.80;94.20;;;;;;4988117;28;20428;-77
2022/01/19 13:55:26;;;;;;;;;;;4.80;92.90;;;;;;4993992;28;19918;-77
2022/01/19 13:58:11;;;;;;;;;;;4.70;92.70;;;;;;4984151;28;19925;-77
2022/01/19 14:00:57;;;;;;;;;;;4.70;93.20;;;;;;4994414;28;19921;-83
2022/01/19 14:03:23;;;;;;;;;;;4.60;93.80;;;;;;4995398;28;19917;-80
2022/01/19 14:05:51;;;;;;;;;;;4.60;94.00;;;;;;4985562;28;19969;-79
2022/01/19 14:08:30;;;;;;;;;;;4.60;94.00;;;;;;4984650;28;19921;-78
2022/01/19 14:10:56;;;;;;;;;;;4.50;94.60;;;;;;4972641;28;20647;-80
2022/01/19 14:13:37;;;;;;;;;;;4.50;94.60;;;;;;4959847;28;19917;-77
2022/01/19 14:16:18;;;;;;;;;;;4.50;94.30;;;;;;4992936;28;20293;-76
2022/01/19 14:19:03;;;;;;;;;;;4.50;95.00;;;;;;4976346;28;19918;-79
2022/01/19 14:21:29;;;;;;;;;;;4.30;94.50;;;;;;4983717;28;19924;-79
2022/01/19 14:23:58;;;;;;;;;;;4.20;95.30;;;;;;4991971;28;20344;-81
2022/01/19 14:26:24;;;;;;;;;;;4.10;96.00;;;;;;4995058;28;19929;-80
2022/01/19 14:29:09;;;;;;;;;;;4.10;96.20;;;;;;4990620;28;19983;-76
2022/01/19 14:31:34;;;;;;;;;;;4.10;97.10;;;;;;4988033;28;19953;-77
2022/01/19 14:34:00;;;;;;;;;;;4.10;96.90;;;;;;4985936;28;19973;-79
2022/01/19 14:36:26;;;;;;;;;;;4.10;97.30;;;;;;4998960;28;19918;-86
2022/01/19 14:38:57;;;;;;;;;;;4.00;97.20;;;;;;4985330;28;19922;-85
2022/01/19 14:41:28;;;;;;;;;;;3.90;97.30;;;;;;5000981;28;19940;-86
2022/01/19 14:44:06;;;;;;;;;;;3.90;97.70;;;;;;4999218;28;20008;-86
2022/01/19 14:46:55;;;;;;;;;;;3.90;97.40;;;;;;4997721;28;20017;-88
2022/01/19 14:49:28;;;;;;;;;;;3.90;97.80;;;;;;4977875;28;19928;-87
2022/01/19 14:51:54;;;;;;;;;;;3.80;98.30;;;;;;5000970;28;20399;-86
2022/01/19 14:54:20;;;;;;;;;;;3.70;98.20;;;;;;5003265;28;19913;-87
2022/01/19 14:56:46;;;;;;;;;;;3.70;98.90;;;;;;5000242;28;20004;-85
2022/01/19 14:59:11;;;;;;;;;;;3.60;99.70;;;;;;4982091;28;20008;-86
2022/01/19 15:01:38;;;;;;;;;;;3.60;99.70;;;;;;4984833;28;20385;-84
2022/01/19 15:04:05;;;;;;;;;;;3.50;99.90;;;;;;4978141;28;19930;-85
2022/01/19 15:06:30;;;;;;;;;;;3.50;99.90;;;;;;4980650;28;19921;-85
2022/01/19 15:08:56;;;;;;;;;;;3.50;99.90;;;;;;4981004;28;19918;-87
2022/01/19 15:11:21;;;;;;;;;;;3.40;99.90;;;;;;4981884;28;19913;-83
2022/01/19 15:13:48;;;;;;;;;;;3.40;99.90;;;;;;4982220;28;19969;-87
2022/01/19 15:16:14;;;;;;;;;;;3.40;99.90;;;;;;4983731;28;19987;-87
2022/01/19 15:18:40;;;;;;;;;;;3.40;99.90;;;;;;4980387;28;20024;-85
2022/01/19 15:21:06;;;;;;;;;;;3.40;99.90;;;;;;4993815;28;19917;-85
2022/01/19 15:23:32;;;;;;;;;;;3.30;99.90;;;;;;5000500;28;19944;-85
2022/01/19 15:25:58;;;;;;;;;;;3.20;99.90;;;;;;4996762;28;20137;-86
2022/01/19 15:28:24;;;;;;;;;;;3.20;99.90;;;;;;5000602;28;19917;-86
2022/01/19 15:30:50;;;;;;;;;;;3.20;99.90;;;;;;4998510;28;19944;-88
2022/01/19 15:33:16;;;;;;;;;;;3.20;99.90;;;;;;4975415;28;20313;-85
2022/01/19 15:35:42;;;;;;;;;;;3.20;99.90;;;;;;4980235;28;19917;-84
2022/01/19 15:38:08;;;;;;;;;;;3.20;99.90;;;;;;4981201;28;19925;-87
2022/01/19 15:40:35;;;;;;;;;;;3.10;99.90;;;;;;4981893;28;20019;-86
2022/01/19 15:43:00;;;;;;;;;;;3.10;99.90;;;;;;4979570;28;19921;-88
2022/01/19 15:45:29;;;;;;;;;;;3.10;99.90;;;;;;4998552;28;20388;-85
2022/01/19 15:47:56;;;;;;;;;;;3.10;99.90;;;;;;4984604;28;19944;-87
2022/01/19 15:50:21;;;;;;;;;;;3.10;99.90;;;;;;4975918;28;20407;-86
2022/01/19 15:52:47;;;;;;;;;;;3.00;99.90;;;;;;4997222;28;20012;-86
2022/01/19 15:55:12;;;;;;;;;;;3.00;99.90;;;;;;4998995;28;19917;-87
2022/01/19 15:57:38;;;;;;;;;;;3.00;99.90;;;;;;4996821;28;19921;-85
2022/01/19 16:00:06;;;;;;;;;;;3.00;99.90;;;;;;4980253;28;20418;-86
2022/01/19 16:02:31;;;;;;;;;;;2.90;99.90;;;;;;4990086;28;19917;-88
2022/01/19 16:04:57;;;;;;;;;;;2.90;99.90;;;;;;4979949;28;20004;-87